sensor_id;sensor_type;location;lat;lon;timestamp;pressure;altitude;pressure_sealevel;temperature;humidity
53246;BME280;39569;51.090;-1.786;2024-02-23T00:01:50;98008.72;;;12.00;50.49
53246;BME280;39569;51.090;-1.786;2024-02-23T00:04:17;97995.19;;;12.33;49.04
53246;BME280;39569;51.090;-1.786;2024-02-23T00:06:45;97990.53;;;12.50;48.79
53246;BME280;39569;51.090;-1.786;2024-02-23T00:09:13;97991.31;;;12.77;48.32
53246;BME280;39569;51.090;-1.786;2024-02-23T00:11:40;97999.00;;;12.68;48.67
53246;BME280;39569;51.090;-1.786;2024-02-23T00:14:10;97992.34;;;12.71;48.16
53246;BME280;39569;51.090;-1.786;2024-02-23T00:16:40;97987.31;;;12.79;48.36
53246;BME280;39569;51.090;-1.786;2024-02-23T00:19:08;97988.34;;;12.73;48.61
53246;BME280;39569;51.090;-1.786;2024-02-23T00:21:35;97977.25;;;12.60;48.78
53246;BME280;39569;51.090;-1.786;2024-02-23T00:24:03;97977.56;;;12.68;48.35
53246;BME280;39569;51.090;-1.786;2024-02-23T00:26:32;97971.63;;;12.61;49.14
53246;BME280;39569;51.090;-1.786;2024-02-23T00:28:58;97966.50;;;12.28;49.68
53246;BME280;39569;51.090;-1.786;2024-02-23T00:31:25;97962.22;;;12.27;49.98
53246;BME280;39569;51.090;-1.786;2024-02-23T00:33:52;97964.34;;;12.25;49.75
53246;BME280;39569;51.090;-1.786;2024-02-23T00:36:19;97952.81;;;12.51;49.06
53246;BME280;39569;51.090;-1.786;2024-02-23T00:38:46;97950.91;;;12.52;49.43
53246;BME280;39569;51.090;-1.786;2024-02-23T00:41:13;97952.19;;;12.76;49.04
53246;BME280;39569;51.090;-1.786;2024-02-23T00:43:41;97947.13;;;12.48;49.61
53246;BME280;39569;51.090;-1.786;2024-02-23T00:46:08;97946.38;;;12.52;49.34
53246;BME280;39569;51.090;-1.786;2024-02-23T00:48:35;97940.16;;;12.42;49.73
53246;BME280;39569;51.090;-1.786;2024-02-23T00:51:03;97942.31;;;12.45;49.56
53246;BME280;39569;51.090;-1.786;2024-02-23T00:53:30;97936.34;;;12.38;49.96
53246;BME280;39569;51.090;-1.786;2024-02-23T00:55:58;97925.69;;;12.43;49.69
53246;BME280;39569;51.090;-1.786;2024-02-23T00:58:25;97919.38;;;12.59;49.83
53246;BME280;39569;51.090;-1.786;2024-02-23T01:00:53;97921.19;;;12.85;49.57
53246;BME280;39569;51.090;-1.786;2024-02-23T01:03:20;97907.84;;;12.90;49.03
53246;BME280;39569;51.090;-1.786;2024-02-23T01:05:47;97907.06;;;12.95;49.24
53246;BME280;39569;51.090;-1.786;2024-02-23T01:08:14;97904.28;;;12.79;49.44
53246;BME280;39569;51.090;-1.786;2024-02-23T01:10:40;97900.13;;;12.99;49.51
53246;BME280;39569;51.090;-1.786;2024-02-23T01:13:07;97905.78;;;13.02;49.41
53246;BME280;39569;51.090;-1.786;2024-02-23T01:15:34;97893.47;;;13.01;49.20
53246;BME280;39569;51.090;-1.786;2024-02-23T01:18:03;97881.88;;;13.42;48.88
53246;BME280;39569;51.090;-1.786;2024-02-23T01:20:31;97873.72;;;13.17;49.27
53246;BME280;39569;51.090;-1.786;2024-02-23T01:22:58;97874.03;;;13.26;48.93
53246;BME280;39569;51.090;-1.786;2024-02-23T01:25:24;97868.34;;;13.12;48.63
53246;BME280;39569;51.090;-1.786;2024-02-23T01:27:51;97866.53;;;13.23;48.94
53246;BME280;39569;51.090;-1.786;2024-02-23T01:30:18;97863.38;;;12.94;49.40
53246;BME280;39569;51.090;-1.786;2024-02-23T01:32:45;97857.38;;;13.19;49.94
53246;BME280;39569;51.090;-1.786;2024-02-23T01:35:12;97855.53;;;13.19;49.82
53246;BME280;39569;51.090;-1.786;2024-02-23T01:37:39;97855.94;;;13.01;50.51
53246;BME280;39569;51.090;-1.786;2024-02-23T01:40:07;97861.06;;;13.69;49.11
53246;BME280;39569;51.090;-1.786;2024-02-23T01:42:34;97849.84;;;12.69;50.67
53246;BME280;39569;51.090;-1.786;2024-02-23T01:45:00;97855.94;;;13.01;49.90
53246;BME280;39569;51.090;-1.786;2024-02-23T01:47:29;97859.25;;;12.71;51.15
53246;BME280;39569;51.090;-1.786;2024-02-23T01:49:57;97842.84;;;13.71;49.38
53246;BME280;39569;51.090;-1.786;2024-02-23T01:52:27;97844.53;;;13.26;49.79
53246;BME280;39569;51.090;-1.786;2024-02-23T01:54:54;97836.69;;;13.86;48.48
53246;BME280;39569;51.090;-1.786;2024-02-23T01:57:21;97831.97;;;13.26;49.47
53246;BME280;39569;51.090;-1.786;2024-02-23T01:59:49;97835.13;;;14.25;47.75
53246;BME280;39569;51.090;-1.786;2024-02-23T02:02:16;97826.00;;;14.41;47.29
53246;BME280;39569;51.090;-1.786;2024-02-23T02:04:43;97831.56;;;13.74;48.49
53246;BME280;39569;51.090;-1.786;2024-02-23T02:07:10;97838.28;;;13.77;48.38
53246;BME280;39569;51.090;-1.786;2024-02-23T02:09:38;97844.50;;;14.08;48.38
53246;BME280;39569;51.090;-1.786;2024-02-23T02:12:05;97843.34;;;13.63;48.61
53246;BME280;39569;51.090;-1.786;2024-02-23T02:14:32;97832.16;;;14.07;47.81
53246;BME280;39569;51.090;-1.786;2024-02-23T02:16:59;97844.75;;;13.91;48.40
53246;BME280;39569;51.090;-1.786;2024-02-23T02:19:25;97856.63;;;12.45;50.84
53246;BME280;39569;51.090;-1.786;2024-02-23T02:21:52;97865.00;;;11.90;53.16
53246;BME280;39569;51.090;-1.786;2024-02-23T02:24:19;97841.16;;;12.15;52.30
53246;BME280;39569;51.090;-1.786;2024-02-23T02:26:47;97838.78;;;12.97;50.98
53246;BME280;39569;51.090;-1.786;2024-02-23T02:29:15;97841.88;;;12.42;51.31
53246;BME280;39569;51.090;-1.786;2024-02-23T02:31:42;97828.69;;;12.67;51.30
53246;BME280;39569;51.090;-1.786;2024-02-23T02:34:09;97832.94;;;12.63;51.44
53246;BME280;39569;51.090;-1.786;2024-02-23T02:36:38;97837.38;;;12.11;52.16
53246;BME280;39569;51.090;-1.786;2024-02-23T02:39:05;97822.69;;;12.50;51.22
53246;BME280;39569;51.090;-1.786;2024-02-23T02:41:32;97838.31;;;12.27;52.02
53246;BME280;39569;51.090;-1.786;2024-02-23T02:44:00;97840.75;;;12.02;52.49
53246;BME280;39569;51.090;-1.786;2024-02-23T02:46:27;97832.38;;;12.56;51.12
53246;BME280;39569;51.090;-1.786;2024-02-23T02:48:54;97842.88;;;11.68;53.06
53246;BME280;39569;51.090;-1.786;2024-02-23T02:51:21;97860.41;;;11.85;52.46
53246;BME280;39569;51.090;-1.786;2024-02-23T02:53:48;97851.75;;;11.73;53.39
53246;BME280;39569;51.090;-1.786;2024-02-23T02:56:14;97846.78;;;12.50;52.15
53246;BME280;39569;51.090;-1.786;2024-02-23T02:58:41;97841.72;;;12.17;52.75
53246;BME280;39569;51.090;-1.786;2024-02-23T03:01:09;97850.19;;;12.09;53.38
53246;BME280;39569;51.090;-1.786;2024-02-23T03:03:36;97855.28;;;11.79;53.28
53246;BME280;39569;51.090;-1.786;2024-02-23T03:06:03;97856.50;;;12.61;52.21
53246;BME280;39569;51.090;-1.786;2024-02-23T03:08:31;97855.50;;;12.36;52.14
53246;BME280;39569;51.090;-1.786;2024-02-23T03:10:58;97850.72;;;12.43;51.54
53246;BME280;39569;51.090;-1.786;2024-02-23T03:13:24;97846.50;;;12.15;51.89
53246;BME280;39569;51.090;-1.786;2024-02-23T03:15:51;97852.78;;;11.72;52.95
53246;BME280;39569;51.090;-1.786;2024-02-23T03:18:19;97851.84;;;12.88;51.16
53246;BME280;39569;51.090;-1.786;2024-02-23T03:20:46;97845.88;;;12.76;50.83
53246;BME280;39569;51.090;-1.786;2024-02-23T03:23:13;97844.00;;;13.24;49.47
53246;BME280;39569;51.090;-1.786;2024-02-23T03:25:40;97853.44;;;12.48;51.83
53246;BME280;39569;51.090;-1.786;2024-02-23T03:28:06;97860.19;;;12.97;50.39
53246;BME280;39569;51.090;-1.786;2024-02-23T03:30:33;97866.81;;;13.26;49.75
53246;BME280;39569;51.090;-1.786;2024-02-23T03:33:00;97864.59;;;12.71;50.54
53246;BME280;39569;51.090;-1.786;2024-02-23T03:35:28;97867.72;;;13.52;49.53
53246;BME280;39569;51.090;-1.786;2024-02-23T03:37:55;97884.78;;;12.47;51.10
53246;BME280;39569;51.090;-1.786;2024-02-23T03:40:22;97872.22;;;13.41;49.56
53246;BME280;39569;51.090;-1.786;2024-02-23T03:42:48;97868.25;;;13.49;48.62
53246;BME280;39569;51.090;-1.786;2024-02-23T03:45:15;97867.41;;;13.38;49.71
53246;BME280;39569;51.090;-1.786;2024-02-23T03:47:42;97871.06;;;13.22;49.85
53246;BME280;39569;51.090;-1.786;2024-02-23T03:50:09;97870.25;;;12.75;51.76
53246;BME280;39569;51.090;-1.786;2024-02-23T03:52:38;97869.66;;;13.71;49.53
53246;BME280;39569;51.090;-1.786;2024-02-23T03:55:05;97864.19;;;13.41;49.96
53246;BME280;39569;51.090;-1.786;2024-02-23T03:57:32;97876.06;;;13.04;51.01
53246;BME280;39569;51.090;-1.786;2024-02-23T03:59:59;97883.72;;;13.32;50.22
53246;BME280;39569;51.090;-1.786;2024-02-23T04:02:26;97899.59;;;12.28;52.01
53246;BME280;39569;51.090;-1.786;2024-02-23T04:04:52;97896.69;;;12.66;51.72
53246;BME280;39569;51.090;-1.786;2024-02-23T04:07:19;97909.84;;;12.36;51.68
53246;BME280;39569;51.090;-1.786;2024-02-23T04:09:47;97906.38;;;12.72;52.20
53246;BME280;39569;51.090;-1.786;2024-02-23T04:12:17;97901.81;;;13.05;51.18
53246;BME280;39569;51.090;-1.786;2024-02-23T04:14:44;97904.50;;;13.05;50.57
53246;BME280;39569;51.090;-1.786;2024-02-23T04:17:11;97904.94;;;13.02;50.64
53246;BME280;39569;51.090;-1.786;2024-02-23T04:19:40;97907.78;;;12.80;51.17
53246;BME280;39569;51.090;-1.786;2024-02-23T04:22:07;97905.47;;;12.99;49.83
53246;BME280;39569;51.090;-1.786;2024-02-23T04:24:36;97901.53;;;13.63;49.13
53246;BME280;39569;51.090;-1.786;2024-02-23T04:27:04;97889.00;;;13.78;48.25
53246;BME280;39569;51.090;-1.786;2024-02-23T04:29:31;97900.66;;;12.96;49.83
53246;BME280;39569;51.090;-1.786;2024-02-23T04:31:58;97909.44;;;12.86;50.67
53246;BME280;39569;51.090;-1.786;2024-02-23T04:34:24;97900.25;;;13.19;50.03
53246;BME280;39569;51.090;-1.786;2024-02-23T04:36:51;97910.03;;;13.40;49.63
53246;BME280;39569;51.090;-1.786;2024-02-23T04:39:18;97907.53;;;13.95;48.38
53246;BME280;39569;51.090;-1.786;2024-02-23T04:41:45;97913.22;;;14.14;47.43
53246;BME280;39569;51.090;-1.786;2024-02-23T04:44:13;97920.19;;;13.33;49.62
53246;BME280;39569;51.090;-1.786;2024-02-23T04:46:40;97909.75;;;13.36;49.08
53246;BME280;39569;51.090;-1.786;2024-02-23T04:49:06;97902.41;;;13.83;48.40
53246;BME280;39569;51.090;-1.786;2024-02-23T04:51:33;97915.16;;;13.51;48.85
53246;BME280;39569;51.090;-1.786;2024-02-23T04:54:00;97917.66;;;13.73;48.17
53246;BME280;39569;51.090;-1.786;2024-02-23T04:56:26;97925.72;;;13.83;48.05
53246;BME280;39569;51.090;-1.786;2024-02-23T04:58:53;97929.81;;;14.01;47.71
53246;BME280;39569;51.090;-1.786;2024-02-23T05:01:21;97917.63;;;13.63;49.35
53246;BME280;39569;51.090;-1.786;2024-02-23T05:03:48;97922.41;;;13.51;48.89
53246;BME280;39569;51.090;-1.786;2024-02-23T05:06:15;97927.06;;;13.75;48.51
53246;BME280;39569;51.090;-1.786;2024-02-23T05:08:42;97920.50;;;13.41;48.34
53246;BME280;39569;51.090;-1.786;2024-02-23T05:11:09;97930.19;;;12.11;50.97
53246;BME280;39569;51.090;-1.786;2024-02-23T05:13:35;97919.63;;;12.89;50.17
53246;BME280;39569;51.090;-1.786;2024-02-23T05:16:05;97923.78;;;11.42;53.09
53246;BME280;39569;51.090;-1.786;2024-02-23T05:18:33;97930.91;;;12.28;52.37
53246;BME280;39569;51.090;-1.786;2024-02-23T05:21:00;97936.84;;;12.35;51.35
53246;BME280;39569;51.090;-1.786;2024-02-23T05:23:27;97928.78;;;12.61;50.27
53246;BME280;39569;51.090;-1.786;2024-02-23T05:25:53;97918.91;;;13.45;48.48
53246;BME280;39569;51.090;-1.786;2024-02-23T05:28:20;97923.91;;;13.32;49.65
53246;BME280;39569;51.090;-1.786;2024-02-23T05:30:47;97933.38;;;12.34;51.49
53246;BME280;39569;51.090;-1.786;2024-02-23T05:33:14;97926.00;;;12.83;50.36
53246;BME280;39569;51.090;-1.786;2024-02-23T05:35:42;97926.59;;;12.22;51.28
53246;BME280;39569;51.090;-1.786;2024-02-23T05:38:09;97921.22;;;11.95;52.19
53246;BME280;39569;51.090;-1.786;2024-02-23T05:40:36;97918.19;;;11.87;52.51
53246;BME280;39569;51.090;-1.786;2024-02-23T05:43:02;97903.25;;;12.49;50.74
53246;BME280;39569;51.090;-1.786;2024-02-23T05:45:29;97914.94;;;12.69;49.59
53246;BME280;39569;51.090;-1.786;2024-02-23T05:47:56;97912.94;;;12.55;50.14
53246;BME280;39569;51.090;-1.786;2024-02-23T05:50:23;97910.13;;;13.08;49.08
53246;BME280;39569;51.090;-1.786;2024-02-23T05:52:51;97908.03;;;13.15;49.58
53246;BME280;39569;51.090;-1.786;2024-02-23T05:55:18;97907.47;;;12.40;50.20
53246;BME280;39569;51.090;-1.786;2024-02-23T05:57:45;97925.38;;;12.71;50.33
53246;BME280;39569;51.090;-1.786;2024-02-23T06:00:13;97922.63;;;12.61;50.40
53246;BME280;39569;51.090;-1.786;2024-02-23T06:02:40;97932.41;;;12.77;49.84
53246;BME280;39569;51.090;-1.786;2024-02-23T06:05:07;97931.16;;;12.95;50.13
53246;BME280;39569;51.090;-1.786;2024-02-23T06:07:34;97931.78;;;13.53;47.89
53246;BME280;39569;51.090;-1.786;2024-02-23T06:10:04;97937.91;;;13.02;49.40
53246;BME280;39569;51.090;-1.786;2024-02-23T06:12:31;97946.50;;;12.67;49.53
53246;BME280;39569;51.090;-1.786;2024-02-23T06:14:57;97952.41;;;11.84;51.98
53246;BME280;39569;51.090;-1.786;2024-02-23T06:17:24;97943.66;;;12.47;50.60
53246;BME280;39569;51.090;-1.786;2024-02-23T06:19:51;97952.03;;;12.88;50.09
53246;BME280;39569;51.090;-1.786;2024-02-23T06:22:19;97955.22;;;12.53;50.06
53246;BME280;39569;51.090;-1.786;2024-02-23T06:24:46;97958.44;;;12.23;50.20
53246;BME280;39569;51.090;-1.786;2024-02-23T06:27:14;97953.69;;;12.30;50.91
53246;BME280;39569;51.090;-1.786;2024-02-23T06:29:41;97956.19;;;12.15;51.25
53246;BME280;39569;51.090;-1.786;2024-02-23T06:32:08;97953.03;;;12.81;49.46
53246;BME280;39569;51.090;-1.786;2024-02-23T06:34:35;97955.09;;;12.38;50.34
53246;BME280;39569;51.090;-1.786;2024-02-23T06:37:02;97955.19;;;13.16;48.17
53246;BME280;39569;51.090;-1.786;2024-02-23T06:39:29;97953.16;;;13.33;47.96
53246;BME280;39569;51.090;-1.786;2024-02-23T06:41:56;97951.44;;;13.12;48.16
53246;BME280;39569;51.090;-1.786;2024-02-23T06:44:24;97937.38;;;13.42;47.76
53246;BME280;39569;51.090;-1.786;2024-02-23T06:46:51;97941.72;;;13.06;47.84
53246;BME280;39569;51.090;-1.786;2024-02-23T06:49:18;97949.19;;;12.09;50.24
53246;BME280;39569;51.090;-1.786;2024-02-23T06:51:44;97940.56;;;12.92;48.96
53246;BME280;39569;51.090;-1.786;2024-02-23T06:54:11;97935.59;;;13.11;47.99
53246;BME280;39569;51.090;-1.786;2024-02-23T06:56:38;97937.78;;;12.19;50.49
53246;BME280;39569;51.090;-1.786;2024-02-23T06:59:05;97946.66;;;12.51;49.45
53246;BME280;39569;51.090;-1.786;2024-02-23T07:01:33;97953.34;;;12.85;48.99
53246;BME280;39569;51.090;-1.786;2024-02-23T07:04:01;97944.38;;;12.38;49.60
53246;BME280;39569;51.090;-1.786;2024-02-23T07:06:28;97952.16;;;12.71;49.50
53246;BME280;39569;51.090;-1.786;2024-02-23T07:08:56;97961.13;;;12.87;48.44
53246;BME280;39569;51.090;-1.786;2024-02-23T07:11:23;97950.44;;;13.23;47.68
53246;BME280;39569;51.090;-1.786;2024-02-23T07:13:50;97956.81;;;13.17;47.26
53246;BME280;39569;51.090;-1.786;2024-02-23T07:16:17;97956.44;;;13.04;48.17
53246;BME280;39569;51.090;-1.786;2024-02-23T07:18:45;97965.25;;;12.67;49.37
53246;BME280;39569;51.090;-1.786;2024-02-23T07:21:12;97960.03;;;13.19;48.04
53246;BME280;39569;51.090;-1.786;2024-02-23T07:23:39;97966.44;;;12.50;49.15
53246;BME280;39569;51.090;-1.786;2024-02-23T07:26:06;97973.50;;;11.81;51.55
53246;BME280;39569;51.090;-1.786;2024-02-23T07:28:33;97970.88;;;12.39;50.07
53246;BME280;39569;51.090;-1.786;2024-02-23T07:30:59;97977.94;;;11.97;50.86
53246;BME280;39569;51.090;-1.786;2024-02-23T07:33:26;97967.56;;;12.01;50.90
53246;BME280;39569;51.090;-1.786;2024-02-23T07:35:54;97968.47;;;12.11;51.66
53246;BME280;39569;51.090;-1.786;2024-02-23T07:38:21;97960.59;;;12.26;50.52
53246;BME280;39569;51.090;-1.786;2024-02-23T07:40:48;97958.53;;;13.02;48.22
53246;BME280;39569;51.090;-1.786;2024-02-23T07:43:15;97957.72;;;13.33;47.53
53246;BME280;39569;51.090;-1.786;2024-02-23T07:45:41;97966.44;;;13.60;47.02
53246;BME280;39569;51.090;-1.786;2024-02-23T07:48:09;97958.72;;;13.78;46.76
53246;BME280;39569;51.090;-1.786;2024-02-23T07:50:36;97966.78;;;13.83;46.49
53246;BME280;39569;51.090;-1.786;2024-02-23T07:53:04;97967.41;;;14.01;46.31
53246;BME280;39569;51.090;-1.786;2024-02-23T07:55:31;97977.53;;;13.83;46.16
53246;BME280;39569;51.090;-1.786;2024-02-23T07:57:58;97986.38;;;13.84;46.12
53246;BME280;39569;51.090;-1.786;2024-02-23T08:00:26;97986.72;;;13.98;46.04
53246;BME280;39569;51.090;-1.786;2024-02-23T08:02:53;97989.63;;;13.96;46.22
53246;BME280;39569;51.090;-1.786;2024-02-23T08:05:22;97985.91;;;14.02;45.96
53246;BME280;39569;51.090;-1.786;2024-02-23T08:07:48;98003.22;;;13.69;46.63
53246;BME280;39569;51.090;-1.786;2024-02-23T08:10:17;97999.59;;;14.01;46.45
53246;BME280;39569;51.090;-1.786;2024-02-23T08:12:44;98009.25;;;13.97;45.95
53246;BME280;39569;51.090;-1.786;2024-02-23T08:15:10;98012.53;;;14.14;45.85
53246;BME280;39569;51.090;-1.786;2024-02-23T08:17:37;98007.16;;;14.09;45.89
53246;BME280;39569;51.090;-1.786;2024-02-23T08:20:05;98007.56;;;14.57;45.52
53246;BME280;39569;51.090;-1.786;2024-02-23T08:22:33;98014.28;;;14.70;45.53
53246;BME280;39569;51.090;-1.786;2024-02-23T08:24:59;98015.13;;;15.01;45.03
53246;BME280;39569;51.090;-1.786;2024-02-23T08:27:27;98012.13;;;15.32;44.59
53246;BME280;39569;51.090;-1.786;2024-02-23T08:29:54;98012.16;;;15.07;44.87
53246;BME280;39569;51.090;-1.786;2024-02-23T08:32:21;98025.88;;;15.16;44.36
53246;BME280;39569;51.090;-1.786;2024-02-23T08:34:48;98029.84;;;14.63;44.66
53246;BME280;39569;51.090;-1.786;2024-02-23T08:37:15;98023.72;;;15.03;44.96
53246;BME280;39569;51.090;-1.786;2024-02-23T08:39:42;98026.94;;;15.00;44.69
53246;BME280;39569;51.090;-1.786;2024-02-23T08:42:09;98026.94;;;15.10;45.03
53246;BME280;39569;51.090;-1.786;2024-02-23T08:44:37;98015.16;;;14.04;46.88
53246;BME280;39569;51.090;-1.786;2024-02-23T08:47:06;98013.75;;;14.53;45.67
53246;BME280;39569;51.090;-1.786;2024-02-23T08:49:32;98022.84;;;13.80;46.68
53246;BME280;39569;51.090;-1.786;2024-02-23T08:51:59;98012.69;;;13.92;47.19
53246;BME280;39569;51.090;-1.786;2024-02-23T08:54:27;98016.47;;;13.03;48.80
53246;BME280;39569;51.090;-1.786;2024-02-23T08:56:54;98020.06;;;13.55;48.46
53246;BME280;39569;51.090;-1.786;2024-02-23T08:59:21;98023.41;;;13.82;48.43
53246;BME280;39569;51.090;-1.786;2024-02-23T09:01:49;98015.31;;;14.39;47.48
53246;BME280;39569;51.090;-1.786;2024-02-23T09:04:16;98011.56;;;14.45;46.57
53246;BME280;39569;51.090;-1.786;2024-02-23T09:06:43;98017.84;;;14.04;47.59
53246;BME280;39569;51.090;-1.786;2024-02-23T09:09:09;98019.13;;;14.53;46.67
53246;BME280;39569;51.090;-1.786;2024-02-23T09:11:36;98015.72;;;14.06;47.32
53246;BME280;39569;51.090;-1.786;2024-02-23T09:14:03;98026.84;;;13.77;47.29
53246;BME280;39569;51.090;-1.786;2024-02-23T09:16:30;98034.13;;;14.44;47.02
53246;BME280;39569;51.090;-1.786;2024-02-23T09:18:58;98033.09;;;14.70;46.12
53246;BME280;39569;51.090;-1.786;2024-02-23T09:21:25;98021.53;;;14.49;45.51
53246;BME280;39569;51.090;-1.786;2024-02-23T09:23:52;98013.22;;;14.96;45.32
53246;BME280;39569;51.090;-1.786;2024-02-23T09:26:18;98014.44;;;16.92;41.58
53246;BME280;39569;51.090;-1.786;2024-02-23T09:28:45;98012.88;;;18.61;37.83
53246;BME280;39569;51.090;-1.786;2024-02-23T09:31:12;97999.41;;;19.25;36.32
53246;BME280;39569;51.090;-1.786;2024-02-23T09:33:39;98006.50;;;18.89;36.35
53246;BME280;39569;51.090;-1.786;2024-02-23T09:36:07;98018.81;;;17.16;40.18
53246;BME280;39569;51.090;-1.786;2024-02-23T09:38:35;98015.34;;;17.11;39.46
53246;BME280;39569;51.090;-1.786;2024-02-23T09:41:02;98018.75;;;16.93;40.12
53246;BME280;39569;51.090;-1.786;2024-02-23T09:43:29;98022.50;;;15.94;42.20
53246;BME280;39569;51.090;-1.786;2024-02-23T09:45:57;98009.88;;;17.21;40.12
53246;BME280;39569;51.090;-1.786;2024-02-23T09:48:24;98015.84;;;16.35;40.71
53246;BME280;39569;51.090;-1.786;2024-02-23T09:50:52;98025.03;;;15.55;42.63
53246;BME280;39569;51.090;-1.786;2024-02-23T09:53:21;98025.06;;;15.10;43.43
53246;BME280;39569;51.090;-1.786;2024-02-23T09:55:48;98024.25;;;15.00;44.08
53246;BME280;39569;51.090;-1.786;2024-02-23T09:58:17;98041.84;;;13.68;46.86
53246;BME280;39569;51.090;-1.786;2024-02-23T10:00:45;98034.13;;;14.59;45.48
53246;BME280;39569;51.090;-1.786;2024-02-23T10:03:11;98040.09;;;14.91;44.71
53246;BME280;39569;51.090;-1.786;2024-02-23T10:05:38;98035.13;;;16.04;43.15
53246;BME280;39569;51.090;-1.786;2024-02-23T10:08:05;98029.72;;;16.67;41.02
53246;BME280;39569;51.090;-1.786;2024-02-23T10:10:34;98035.41;;;17.00;39.99
53246;BME280;39569;51.090;-1.786;2024-02-23T10:13:01;98030.41;;;18.45;38.81
53246;BME280;39569;51.090;-1.786;2024-02-23T10:15:29;98034.41;;;19.54;36.68
53246;BME280;39569;51.090;-1.786;2024-02-23T10:17:56;98025.53;;;20.84;33.81
53246;BME280;39569;51.090;-1.786;2024-02-23T10:20:24;98031.38;;;19.55;35.18
53246;BME280;39569;51.090;-1.786;2024-02-23T10:22:50;98034.53;;;19.30;35.50
53246;BME280;39569;51.090;-1.786;2024-02-23T10:25:19;98038.94;;;17.86;37.90
53246;BME280;39569;51.090;-1.786;2024-02-23T10:27:47;98043.91;;;17.17;39.53
53246;BME280;39569;51.090;-1.786;2024-02-23T10:30:14;98056.66;;;16.67;40.14
53246;BME280;39569;51.090;-1.786;2024-02-23T10:32:41;98046.50;;;18.74;37.25
53246;BME280;39569;51.090;-1.786;2024-02-23T10:35:11;98049.53;;;18.06;38.16
53246;BME280;39569;51.090;-1.786;2024-02-23T10:37:42;98060.06;;;16.24;41.27
53246;BME280;39569;51.090;-1.786;2024-02-23T10:40:11;98054.94;;;18.06;39.64
53246;BME280;39569;51.090;-1.786;2024-02-23T10:42:38;98066.13;;;18.60;37.23
53246;BME280;39569;51.090;-1.786;2024-02-23T10:45:08;98070.00;;;16.88;40.03
53246;BME280;39569;51.090;-1.786;2024-02-23T10:47:35;98060.25;;;16.48;40.77
53246;BME280;39569;51.090;-1.786;2024-02-23T10:50:03;98070.28;;;17.58;39.21
53246;BME280;39569;51.090;-1.786;2024-02-23T10:52:31;98059.56;;;18.48;38.80
53246;BME280;39569;51.090;-1.786;2024-02-23T10:55:00;98050.59;;;18.90;36.98
53246;BME280;39569;51.090;-1.786;2024-02-23T10:57:28;98057.28;;;20.34;33.68
53246;BME280;39569;51.090;-1.786;2024-02-23T10:59:55;98046.94;;;20.72;32.35
53246;BME280;39569;51.090;-1.786;2024-02-23T11:02:24;98061.69;;;20.30;34.21
53246;BME280;39569;51.090;-1.786;2024-02-23T11:04:54;98058.63;;;21.08;32.96
53246;BME280;39569;51.090;-1.786;2024-02-23T11:07:22;98060.38;;;20.28;34.56
53246;BME280;39569;51.090;-1.786;2024-02-23T11:09:52;98057.09;;;20.67;33.87
53246;BME280;39569;51.090;-1.786;2024-02-23T11:12:23;98050.31;;;21.27;32.63
53246;BME280;39569;51.090;-1.786;2024-02-23T11:14:51;98057.97;;;20.76;33.61
53246;BME280;39569;51.090;-1.786;2024-02-23T11:17:18;98051.28;;;20.73;32.97
53246;BME280;39569;51.090;-1.786;2024-02-23T11:19:49;98051.69;;;21.69;32.24
53246;BME280;39569;51.090;-1.786;2024-02-23T11:22:25;98057.88;;;21.16;32.93
53246;BME280;39569;51.090;-1.786;2024-02-23T11:24:52;98050.22;;;22.32;32.05
53246;BME280;39569;51.090;-1.786;2024-02-23T11:27:19;98046.25;;;21.69;31.62
53246;BME280;39569;51.090;-1.786;2024-02-23T11:29:46;98052.03;;;24.20;30.21
53246;BME280;39569;51.090;-1.786;2024-02-23T11:32:14;98048.72;;;23.51;29.86
53246;BME280;39569;51.090;-1.786;2024-02-23T11:34:41;98054.00;;;20.73;33.84
53246;BME280;39569;51.090;-1.786;2024-02-23T11:37:11;98054.06;;;19.59;35.67
53246;BME280;39569;51.090;-1.786;2024-02-23T11:39:38;98051.22;;;22.54;31.51
53246;BME280;39569;51.090;-1.786;2024-02-23T11:42:06;98050.03;;;21.37;31.90
53246;BME280;39569;51.090;-1.786;2024-02-23T11:44:33;98052.25;;;22.18;31.19
53246;BME280;39569;51.090;-1.786;2024-02-23T11:47:00;98034.56;;;24.50;28.02
53246;BME280;39569;51.090;-1.786;2024-02-23T11:49:28;98042.25;;;25.72;26.13
53246;BME280;39569;51.090;-1.786;2024-02-23T11:51:56;98037.44;;;26.38;25.17
53246;BME280;39569;51.090;-1.786;2024-02-23T11:54:24;98040.06;;;22.72;29.09
53246;BME280;39569;51.090;-1.786;2024-02-23T11:56:51;98039.69;;;20.32;32.29
53246;BME280;39569;51.090;-1.786;2024-02-23T11:59:18;98037.25;;;20.44;33.79
53246;BME280;39569;51.090;-1.786;2024-02-23T12:01:45;98042.97;;;18.31;36.13
53246;BME280;39569;51.090;-1.786;2024-02-23T12:04:12;98034.28;;;20.18;33.62
53246;BME280;39569;51.090;-1.786;2024-02-23T12:06:41;98025.13;;;20.41;34.00
53246;BME280;39569;51.090;-1.786;2024-02-23T12:09:09;98030.88;;;18.28;36.06
53246;BME280;39569;51.090;-1.786;2024-02-23T12:11:38;98038.78;;;17.49;37.91
53246;BME280;39569;51.090;-1.786;2024-02-23T12:14:05;98034.47;;;16.81;40.00
53246;BME280;39569;51.090;-1.786;2024-02-23T12:16:33;98026.19;;;17.06;38.78
53246;BME280;39569;51.090;-1.786;2024-02-23T12:19:01;98035.22;;;17.82;38.19
53246;BME280;39569;51.090;-1.786;2024-02-23T12:21:28;98019.78;;;18.30;37.96
53246;BME280;39569;51.090;-1.786;2024-02-23T12:23:54;98026.72;;;18.36;35.21
53246;BME280;39569;51.090;-1.786;2024-02-23T12:26:21;98020.72;;;18.39;36.00
53246;BME280;39569;51.090;-1.786;2024-02-23T12:28:50;98004.66;;;18.29;36.18
53246;BME280;39569;51.090;-1.786;2024-02-23T12:31:23;98017.91;;;16.58;39.05
53246;BME280;39569;51.090;-1.786;2024-02-23T12:33:51;98016.69;;;17.71;37.96
53246;BME280;39569;51.090;-1.786;2024-02-23T12:36:17;98019.56;;;17.22;38.56
53246;BME280;39569;51.090;-1.786;2024-02-23T12:38:44;98016.63;;;16.41;39.72
53246;BME280;39569;51.090;-1.786;2024-02-23T12:41:11;98015.22;;;16.97;39.10
53246;BME280;39569;51.090;-1.786;2024-02-23T12:43:38;98012.97;;;17.38;39.07
53246;BME280;39569;51.090;-1.786;2024-02-23T12:46:06;98011.91;;;17.34;38.66
53246;BME280;39569;51.090;-1.786;2024-02-23T12:48:34;98008.66;;;17.89;37.82
53246;BME280;39569;51.090;-1.786;2024-02-23T12:51:01;98002.94;;;17.43;38.66